Time;durP1;ratioP1;P1;durP2;ratioP2;P2;SDS_P1;SDS_P2;PMS_P1;PMS_P2;Temp;Humidity;BMP_temperature;BMP_pressure;BME280_temperature;BME280_humidity;BME280_pressure;Samples;Min_cycle;Max_cycle;Signal;HPM_P1;HPM_P2
2024/01/04 00:01:37;;;;;;;2.73;1.10;;;;;;;;;;5040345;28;20204;-81
2024/01/04 00:04:03;;;;;;;2.43;1.07;;;;;;;;;;5037905;28;20217;-81
2024/01/04 00:06:29;;;;;;;2.37;1.10;;;;;;;;;;5023992;28;20332;-81
2024/01/04 00:08:55;;;;;;;5.40;1.80;;;;;;;;;;5031911;28;20214;-81
2024/01/04 00:11:21;;;;;;;3.37;1.40;;;;;;;;;;5029209;28;20179;-81
2024/01/04 00:13:47;;;;;;;4.27;1.40;;;;;;;;;;5032979;28;20235;-81
2024/01/04 00:16:13;;;;;;;5.93;1.93;;;;;;;;;;5015594;28;20182;-80
2024/01/04 00:18:40;;;;;;;4.00;1.50;;;;;;;;;;5014465;28;20203;-81
2024/01/04 00:21:06;;;;;;;3.27;1.20;;;;;;;;;;5029037;28;20652;-80
2024/01/04 00:23:33;;;;;;;4.13;1.40;;;;;;;;;;5030137;28;20311;-81
2024/01/04 00:25:59;;;;;;;2.93;1.00;;;;;;;;;;5005091;28;20274;-81
2024/01/04 00:28:25;;;;;;;3.77;1.00;;;;;;;;;;5026033;28;20214;-82
2024/01/04 00:30:51;;;;;;;2.47;0.90;;;;;;;;;;5019708;28;20551;-80
2024/01/04 00:33:17;;;;;;;3.00;0.93;;;;;;;;;;5025544;28;20230;-82
2024/01/04 00:35:43;;;;;;;2.87;0.90;;;;;;;;;;5027195;28;20242;-81
2024/01/04 00:38:10;;;;;;;3.93;1.37;;;;;;;;;;5033254;28;20226;-81
2024/01/04 00:40:39;;;;;;;2.70;1.50;;;;;;;;;;5015816;28;20194;-81
2024/01/04 00:43:05;;;;;;;3.40;1.10;;;;;;;;;;5030222;28;20206;-81
2024/01/04 00:45:32;;;;;;;5.77;1.20;;;;;;;;;;5006346;28;20194;-80
2024/01/04 00:47:58;;;;;;;5.33;1.40;;;;;;;;;;5027926;28;20262;-81
2024/01/04 00:50:24;;;;;;;4.60;1.20;;;;;;;;;;5029700;28;20179;-81
2024/01/04 00:52:50;;;;;;;5.50;1.47;;;;;;;;;;5018625;28;20311;-81
2024/01/04 00:55:17;;;;;;;3.47;1.40;;;;;;;;;;5018194;28;20261;-81
2024/01/04 00:57:43;;;;;;;4.73;1.63;;;;;;;;;;5014269;28;20187;-81
2024/01/04 01:00:10;;;;;;;2.50;1.10;;;;;;;;;;5036364;28;20682;-81
2024/01/04 01:02:36;;;;;;;5.17;1.27;;;;;;;;;;5035501;28;20214;-81
2024/01/04 01:05:02;;;;;;;2.30;1.03;;;;;;;;;;5020340;28;20191;-80
2024/01/04 01:07:29;;;;;;;3.73;1.23;;;;;;;;;;5017688;28;20194;-80
2024/01/04 01:09:55;;;;;;;3.23;1.00;;;;;;;;;;5031059;28;20225;-80
2024/01/04 01:12:21;;;;;;;3.00;1.13;;;;;;;;;;5031230;28;20611;-80
2024/01/04 01:14:47;;;;;;;2.77;1.27;;;;;;;;;;5038367;28;20282;-81
2024/01/04 01:17:13;;;;;;;2.47;1.10;;;;;;;;;;5030211;28;20193;-81
2024/01/04 01:19:40;;;;;;;2.67;0.97;;;;;;;;;;5032384;28;20217;-81
2024/01/04 01:22:06;;;;;;;2.50;0.80;;;;;;;;;;5003122;28;20679;-80
2024/01/04 01:24:32;;;;;;;2.83;1.10;;;;;;;;;;5014937;28;20214;-81
2024/01/04 01:26:59;;;;;;;3.33;1.00;;;;;;;;;;5033858;28;20638;-81
2024/01/04 01:29:25;;;;;;;2.80;1.00;;;;;;;;;;5033657;28;20217;-80
2024/01/04 01:31:51;;;;;;;2.17;1.07;;;;;;;;;;5032898;28;20210;-80
2024/01/04 01:34:17;;;;;;;2.37;1.00;;;;;;;;;;5030819;28;20234;-80
2024/01/04 01:36:44;;;;;;;2.50;1.00;;;;;;;;;;5032962;28;20265;-80
2024/01/04 01:39:11;;;;;;;2.53;1.00;;;;;;;;;;5039220;28;20790;-80
2024/01/04 01:41:37;;;;;;;3.10;1.00;;;;;;;;;;5033218;28;20186;-81
2024/01/04 01:44:03;;;;;;;3.67;1.00;;;;;;;;;;5016801;28;20202;-81
2024/01/04 01:46:29;;;;;;;2.53;1.00;;;;;;;;;;5031249;28;20272;-81
2024/01/04 01:48:56;;;;;;;3.10;0.90;;;;;;;;;;5028836;28;20214;-81
2024/01/04 01:51:22;;;;;;;2.10;0.80;;;;;;;;;;5016239;28;20182;-80
2024/01/04 01:53:48;;;;;;;1.83;0.90;;;;;;;;;;5029304;28;20206;-81
2024/01/04 01:56:14;;;;;;;4.27;1.23;;;;;;;;;;5027982;28;20186;-82
2024/01/04 01:58:40;;;;;;;2.63;0.90;;;;;;;;;;5031154;28;20186;-80
2024/01/04 02:01:07;;;;;;;3.37;0.90;;;;;;;;;;5036781;28;20765;-81
2024/01/04 02:03:33;;;;;;;4.07;1.20;;;;;;;;;;4997577;28;20214;-80
2024/01/04 02:05:59;;;;;;;6.07;1.80;;;;;;;;;;5027404;28;20686;-81
2024/01/04 02:08:25;;;;;;;3.07;1.10;;;;;;;;;;5014422;28;20214;-82
2024/01/04 02:10:51;;;;;;;2.73;1.10;;;;;;;;;;5032332;28;20194;-83
2024/01/04 02:13:17;;;;;;;3.00;1.00;;;;;;;;;;5028444;28;20211;-81
2024/01/04 02:15:44;;;;;;;2.77;1.10;;;;;;;;;;5025715;28;20198;-80
2024/01/04 02:18:10;;;;;;;2.73;0.80;;;;;;;;;;5002784;28;20651;-80
2024/01/04 02:20:36;;;;;;;2.63;1.30;;;;;;;;;;5029259;28;20551;-81
2024/01/04 02:23:02;;;;;;;3.93;1.27;;;;;;;;;;5013079;28;20207;-80
2024/01/04 02:25:28;;;;;;;4.37;1.00;;;;;;;;;;5032306;28;20182;-81
2024/01/04 02:27:54;;;;;;;3.00;1.00;;;;;;;;;;5025669;28;20178;-80
2024/01/04 02:30:20;;;;;;;3.67;1.10;;;;;;;;;;4998187;28;20248;-80
2024/01/04 02:32:47;;;;;;;2.97;1.10;;;;;;;;;;5031428;28;20618;-80
2024/01/04 02:35:13;;;;;;;3.07;1.00;;;;;;;;;;5040247;28;20270;-80
2024/01/04 02:37:39;;;;;;;3.07;1.00;;;;;;;;;;5024072;28;20199;-82
2024/01/04 02:40:05;;;;;;;2.53;1.00;;;;;;;;;;5028970;28;20186;-82
2024/01/04 02:42:32;;;;;;;1.90;0.90;;;;;;;;;;5024577;28;20570;-82
2024/01/04 02:44:58;;;;;;;1.93;0.90;;;;;;;;;;5004825;28;20268;-81
2024/01/04 02:47:24;;;;;;;2.50;0.97;;;;;;;;;;5007361;28;20248;-81
2024/01/04 02:49:50;;;;;;;3.37;1.07;;;;;;;;;;5010969;28;20244;-81
2024/01/04 02:52:16;;;;;;;1.53;0.90;;;;;;;;;;5023050;28;20252;-82
2024/01/04 02:54:42;;;;;;;1.87;0.90;;;;;;;;;;5028329;28;20186;-80
2024/01/04 02:57:09;;;;;;;3.40;1.07;;;;;;;;;;5024441;28;20175;-80
2024/01/04 02:59:35;;;;;;;1.93;0.97;;;;;;;;;;5020831;28;20194;-81
2024/01/04 03:02:02;;;;;;;1.97;0.80;;;;;;;;;;5010621;28;20233;-80
2024/01/04 03:04:28;;;;;;;2.50;0.93;;;;;;;;;;5033608;28;20185;-81
2024/01/04 03:06:54;;;;;;;2.20;0.90;;;;;;;;;;5015133;28;20275;-82
2024/01/04 03:09:21;;;;;;;3.17;0.90;;;;;;;;;;5026468;28;20502;-81
2024/01/04 03:11:47;;;;;;;1.87;0.80;;;;;;;;;;5021824;28;20207;-81
2024/01/04 03:14:13;;;;;;;2.13;0.70;;;;;;;;;;5023327;28;20183;-81
2024/01/04 03:16:39;;;;;;;1.20;0.77;;;;;;;;;;5028313;28;20194;-81
2024/01/04 03:19:05;;;;;;;2.03;0.90;;;;;;;;;;5023094;28;20274;-81
2024/01/04 03:21:31;;;;;;;2.90;0.90;;;;;;;;;;5025519;28;20194;-81
2024/01/04 03:23:58;;;;;;;2.60;0.60;;;;;;;;;;5024485;28;20209;-80
2024/01/04 03:26:24;;;;;;;0.87;0.57;;;;;;;;;;5029162;28;20216;-80
2024/01/04 03:28:50;;;;;;;1.97;0.83;;;;;;;;;;5020142;28;20206;-81
2024/01/04 03:31:16;;;;;;;2.43;0.70;;;;;;;;;;5026846;28;20178;-82
2024/01/04 03:33:42;;;;;;;1.37;0.70;;;;;;;;;;5026637;28;20204;-82
2024/01/04 03:36:09;;;;;;;1.33;0.80;;;;;;;;;;5023891;28;20466;-81
2024/01/04 03:38:35;;;;;;;1.70;0.80;;;;;;;;;;5028622;28;20218;-80
2024/01/04 03:41:02;;;;;;;1.93;0.90;;;;;;;;;;5025242;28;20174;-81
2024/01/04 03:43:28;;;;;;;2.20;0.90;;;;;;;;;;5022374;28;20264;-80
2024/01/04 03:45:54;;;;;;;2.13;0.80;;;;;;;;;;5023322;28;20182;-80
2024/01/04 03:48:20;;;;;;;3.90;0.73;;;;;;;;;;5028117;28;20221;-81
2024/01/04 03:50:46;;;;;;;2.00;0.80;;;;;;;;;;5023193;28;20281;-81
2024/01/04 03:53:12;;;;;;;2.23;0.80;;;;;;;;;;5027701;28;20549;-81
2024/01/04 03:55:39;;;;;;;1.47;0.80;;;;;;;;;;5023166;28;20449;-80
2024/01/04 03:58:05;;;;;;;2.80;0.80;;;;;;;;;;5026433;28;20183;-80
2024/01/04 04:00:31;;;;;;;2.37;1.20;;;;;;;;;;5029307;28;20293;-81
2024/01/04 04:02:58;;;;;;;2.37;0.90;;;;;;;;;;5030160;28;20218;-81
2024/01/04 04:05:24;;;;;;;1.60;0.80;;;;;;;;;;5033626;28;20543;-80
2024/01/04 04:07:50;;;;;;;1.90;0.70;;;;;;;;;;5029325;28;20182;-81
2024/01/04 04:10:16;;;;;;;1.37;0.73;;;;;;;;;;5013124;28;20231;-81
2024/01/04 04:12:42;;;;;;;5.13;0.90;;;;;;;;;;5026765;28;20214;-81
2024/01/04 04:15:09;;;;;;;2.63;0.90;;;;;;;;;;5033204;28;20191;-80
2024/01/04 04:17:35;;;;;;;3.20;0.77;;;;;;;;;;5032406;28;20201;-81
2024/01/04 04:20:01;;;;;;;1.57;0.90;;;;;;;;;;5032996;28;20269;-82
2024/01/04 04:22:27;;;;;;;1.87;0.70;;;;;;;;;;5012297;28;20312;-82
2024/01/04 04:24:53;;;;;;;1.37;0.80;;;;;;;;;;5030485;28;20210;-82
2024/01/04 04:27:20;;;;;;;2.30;0.80;;;;;;;;;;5013122;28;20190;-82
2024/01/04 04:29:46;;;;;;;3.27;0.87;;;;;;;;;;5016145;28;20214;-81
2024/01/04 04:32:12;;;;;;;2.10;0.90;;;;;;;;;;5027123;28;20206;-81
2024/01/04 04:34:38;;;;;;;2.03;0.90;;;;;;;;;;5025150;28;20187;-81
2024/01/04 04:37:04;;;;;;;2.77;1.10;;;;;;;;;;5035963;28;20183;-81
2024/01/04 04:39:31;;;;;;;2.77;1.00;;;;;;;;;;4998735;28;20190;-81
2024/01/04 04:41:58;;;;;;;3.07;0.80;;;;;;;;;;5032507;28;20202;-80
2024/01/04 04:44:24;;;;;;;3.10;1.10;;;;;;;;;;5034143;28;20193;-81
2024/01/04 04:46:50;;;;;;;1.87;0.90;;;;;;;;;;5034862;28;20205;-82
2024/01/04 04:49:16;;;;;;;1.43;0.80;;;;;;;;;;5040072;28;20297;-80
2024/01/04 04:51:48;;;;;;;2.20;1.07;;;;;;;;;;5034163;28;20194;-80
2024/01/04 04:54:16;;;;;;;2.03;0.90;;;;;;;;;;5018668;28;20187;-80
2024/01/04 04:56:42;;;;;;;2.80;0.77;;;;;;;;;;5009222;28;20182;-82
2024/01/04 04:59:09;;;;;;;2.47;0.97;;;;;;;;;;5009814;28;20278;-81
2024/01/04 05:01:35;;;;;;;2.10;0.80;;;;;;;;;;5026211;28;20198;-80
2024/01/04 05:04:02;;;;;;;1.87;0.70;;;;;;;;;;5030982;28;20224;-82
2024/01/04 05:06:28;;;;;;;2.43;0.80;;;;;;;;;;5032925;28;20751;-83
2024/01/04 05:08:54;;;;;;;3.10;0.93;;;;;;;;;;5010244;28;20211;-81
2024/01/04 05:11:20;;;;;;;2.57;0.90;;;;;;;;;;5031728;28;20194;-81
2024/01/04 05:13:46;;;;;;;1.53;0.90;;;;;;;;;;5026603;28;20568;-82
2024/01/04 05:16:13;;;;;;;1.37;0.80;;;;;;;;;;5033351;28;20179;-81
2024/01/04 05:18:39;;;;;;;2.43;0.73;;;;;;;;;;5032618;28;20274;-81
2024/01/04 05:21:05;;;;;;;1.20;0.80;;;;;;;;;;5009674;28;20191;-81
2024/01/04 05:23:31;;;;;;;1.67;0.70;;;;;;;;;;5031337;28;20207;-81
2024/01/04 05:25:57;;;;;;;3.43;0.93;;;;;;;;;;5031379;28;20596;-80
2024/01/04 05:28:23;;;;;;;1.33;0.80;;;;;;;;;;5032204;28;20209;-81
2024/01/04 05:30:49;;;;;;;2.37;0.80;;;;;;;;;;5032712;28;20187;-80
2024/01/04 05:33:16;;;;;;;3.57;1.00;;;;;;;;;;5014153;28;20203;-81
2024/01/04 05:35:42;;;;;;;2.50;1.03;;;;;;;;;;5028696;28;20677;-81
2024/01/04 05:38:08;;;;;;;1.57;1.00;;;;;;;;;;5030719;28;20175;-80
2024/01/04 05:40:34;;;;;;;0.83;0.70;;;;;;;;;;5024013;28;20171;-80
2024/01/04 05:43:00;;;;;;;1.00;0.80;;;;;;;;;;5033314;28;20265;-81
2024/01/04 05:45:26;;;;;;;1.47;0.73;;;;;;;;;;5013890;28;20623;-81
2024/01/04 05:47:52;;;;;;;1.80;0.90;;;;;;;;;;5014646;28;20672;-80
2024/01/04 05:50:18;;;;;;;0.90;0.67;;;;;;;;;;5031670;28;20206;-80
2024/01/04 05:52:44;;;;;;;1.77;0.83;;;;;;;;;;5014763;28;20302;-80
2024/01/04 05:55:10;;;;;;;2.13;0.90;;;;;;;;;;5028567;28;20275;-81
2024/01/04 05:57:37;;;;;;;1.27;0.70;;;;;;;;;;5024470;28;20585;-80
2024/01/04 06:00:04;;;;;;;1.83;0.90;;;;;;;;;;5032871;28;20685;-81
2024/01/04 06:02:31;;;;;;;2.03;0.87;;;;;;;;;;5026845;28;20217;-80
2024/01/04 06:04:57;;;;;;;1.17;0.70;;;;;;;;;;5035775;28;20190;-81
2024/01/04 06:07:23;;;;;;;1.90;0.80;;;;;;;;;;5029938;28;20681;-82
2024/01/04 06:09:49;;;;;;;3.40;1.00;;;;;;;;;;5031211;28;20305;-80
2024/01/04 06:12:16;;;;;;;2.33;0.90;;;;;;;;;;5033418;28;20222;-80
2024/01/04 06:14:43;;;;;;;2.83;0.80;;;;;;;;;;5026646;28;20182;-80
2024/01/04 06:17:09;;;;;;;1.27;0.80;;;;;;;;;;5027058;28;20258;-86
2024/01/04 06:19:35;;;;;;;1.73;0.83;;;;;;;;;;5030367;28;20725;-80
2024/01/04 06:22:01;;;;;;;1.60;0.97;;;;;;;;;;5031715;28;20264;-80
2024/01/04 06:24:27;;;;;;;1.80;1.00;;;;;;;;;;5030575;28;20317;-83
2024/01/04 06:26:53;;;;;;;2.17;1.20;;;;;;;;;;5026318;28;20190;-82
2024/01/04 06:29:20;;;;;;;0.87;0.73;;;;;;;;;;5027964;28;20226;-82
2024/01/04 06:31:46;;;;;;;2.70;1.00;;;;;;;;;;5009189;28;20690;-82
2024/01/04 06:34:12;;;;;;;1.73;1.03;;;;;;;;;;5029669;28;20263;-81
2024/01/04 06:36:38;;;;;;;2.40;1.00;;;;;;;;;;5030185;28;20186;-81
2024/01/04 06:39:05;;;;;;;2.37;0.83;;;;;;;;;;5028692;28;20236;-81
2024/01/04 06:41:32;;;;;;;1.87;0.73;;;;;;;;;;5030945;28;20197;-81
2024/01/04 06:43:58;;;;;;;2.17;1.00;;;;;;;;;;5013959;28;20218;-82
2024/01/04 06:46:24;;;;;;;2.40;0.93;;;;;;;;;;5029710;28;20444;-81
2024/01/04 06:48:50;;;;;;;2.13;0.90;;;;;;;;;;5012364;28;20203;-82
2024/01/04 06:51:17;;;;;;;2.10;0.83;;;;;;;;;;5009145;28;20270;-82
2024/01/04 06:53:43;;;;;;;3.10;0.93;;;;;;;;;;5026703;28;20217;-80
2024/01/04 06:56:11;;;;;;;1.57;0.83;;;;;;;;;;5026186;28;20269;-78
2024/01/04 06:58:37;;;;;;;1.97;0.80;;;;;;;;;;5020560;28;20670;-77
2024/01/04 07:01:03;;;;;;;2.47;0.90;;;;;;;;;;5034330;28;20561;-76
2024/01/04 07:03:30;;;;;;;2.00;0.90;;;;;;;;;;5029563;28;20232;-79
2024/01/04 07:05:56;;;;;;;2.23;1.00;;;;;;;;;;5031054;28;20221;-81
2024/01/04 07:08:23;;;;;;;2.92;0.90;;;;;;;;;;5028647;28;20436;-81
2024/01/04 07:10:49;;;;;;;0.80;0.80;;;;;;;;;;5030760;28;20198;-76
2024/01/04 07:13:15;;;;;;;2.00;1.00;;;;;;;;;;5023073;28;20207;-78
2024/01/04 07:15:41;;;;;;;2.23;1.00;;;;;;;;;;5012634;28;20265;-77
2024/01/04 07:18:07;;;;;;;2.37;0.80;;;;;;;;;;5022668;28;20225;-77
2024/01/04 07:20:34;;;;;;;2.13;0.90;;;;;;;;;;5012687;28;20182;-81
2024/01/04 07:23:01;;;;;;;2.07;1.00;;;;;;;;;;5012595;28;20258;-77
2024/01/04 07:25:27;;;;;;;5.37;1.00;;;;;;;;;;5024259;28;20217;-81
2024/01/04 07:27:53;;;;;;;2.73;1.00;;;;;;;;;;5025071;28;20232;-80
2024/01/04 07:30:20;;;;;;;2.20;1.00;;;;;;;;;;5026710;28;20210;-77
2024/01/04 07:32:46;;;;;;;2.73;1.10;;;;;;;;;;5027352;28;20314;-77
2024/01/04 07:35:12;;;;;;;1.73;1.00;;;;;;;;;;5026815;28;20489;-77
2024/01/04 07:37:39;;;;;;;5.67;1.10;;;;;;;;;;5008253;28;20664;-77
2024/01/04 07:40:05;;;;;;;3.27;0.90;;;;;;;;;;5025374;28;20186;-77
2024/01/04 07:42:32;;;;;;;2.57;0.90;;;;;;;;;;5026627;28;20245;-79
2024/01/04 07:44:58;;;;;;;1.03;0.83;;;;;;;;;;5027815;28;20643;-78
2024/01/04 07:47:24;;;;;;;1.67;1.00;;;;;;;;;;5026917;28;20182;-77
2024/01/04 07:49:50;;;;;;;3.50;1.03;;;;;;;;;;5026042;28;20232;-77
2024/01/04 07:52:16;;;;;;;3.43;1.10;;;;;;;;;;5024144;28;20705;-78
2024/01/04 07:54:42;;;;;;;2.17;0.90;;;;;;;;;;5024953;28;20178;-77
2024/01/04 07:57:09;;;;;;;2.03;0.90;;;;;;;;;;5024049;28;20447;-78
2024/01/04 07:59:36;;;;;;;2.63;1.03;;;;;;;;;;5023369;28;20182;-78
2024/01/04 08:02:02;;;;;;;3.67;1.00;;;;;;;;;;5023417;28;20331;-78
2024/01/04 08:04:28;;;;;;;2.47;1.00;;;;;;;;;;5025207;28;20266;-78
2024/01/04 08:06:55;;;;;;;4.97;1.20;;;;;;;;;;5021612;28;20216;-77
2024/01/04 08:09:21;;;;;;;3.03;1.00;;;;;;;;;;5024550;28;20263;-79
2024/01/04 08:11:47;;;;;;;4.07;1.33;;;;;;;;;;5025606;28;20183;-78
2024/01/04 08:14:14;;;;;;;4.90;1.20;;;;;;;;;;5025129;28;20253;-78
2024/01/04 08:16:40;;;;;;;4.83;1.47;;;;;;;;;;5023517;28;20198;-78
2024/01/04 08:19:06;;;;;;;5.20;1.67;;;;;;;;;;5026543;28;20682;-78
2024/01/04 08:21:32;;;;;;;6.30;1.70;;;;;;;;;;5026622;28;20625;-79
2024/01/04 08:23:58;;;;;;;3.63;1.53;;;;;;;;;;5028269;28;20305;-78
2024/01/04 08:26:25;;;;;;;5.37;1.53;;;;;;;;;;5025748;28;20183;-78
2024/01/04 08:28:51;;;;;;;5.20;1.40;;;;;;;;;;5018182;28;20223;-77
2024/01/04 08:31:18;;;;;;;3.43;1.33;;;;;;;;;;5027418;28;20178;-77
2024/01/04 08:33:44;;;;;;;6.70;1.70;;;;;;;;;;5029156;28;20198;-77
2024/01/04 08:36:10;;;;;;;6.00;1.90;;;;;;;;;;5028693;28;20259;-78
2024/01/04 08:38:36;;;;;;;5.03;1.83;;;;;;;;;;5028590;28;20212;-78
2024/01/04 08:41:03;;;;;;;6.53;1.83;;;;;;;;;;5025475;28;20193;-78
2024/01/04 08:43:29;;;;;;;5.30;1.50;;;;;;;;;;5022816;28;20241;-79
2024/01/04 08:45:55;;;;;;;6.30;1.70;;;;;;;;;;5008998;28;20535;-78
2024/01/04 08:48:22;;;;;;;5.03;1.60;;;;;;;;;;5027289;28;20183;-78
2024/01/04 08:50:48;;;;;;;7.13;1.83;;;;;;;;;;5028607;28;20182;-79
2024/01/04 08:53:20;;;;;;;5.90;1.70;;;;;;;;;;5027545;28;20697;-78
2024/01/04 08:55:48;;;;;;;5.13;1.73;;;;;;;;;;5026912;28;20178;-78
2024/01/04 08:58:15;;;;;;;6.00;1.57;;;;;;;;;;5028265;28;20186;-79
2024/01/04 09:00:41;;;;;;;6.40;1.60;;;;;;;;;;5027818;28;20284;-78
2024/01/04 09:03:07;;;;;;;8.93;1.90;;;;;;;;;;5028099;28;20815;-78
2024/01/04 09:05:33;;;;;;;4.70;1.77;;;;;;;;;;5027509;28;20178;-79
2024/01/04 09:07:59;;;;;;;5.07;1.73;;;;;;;;;;5028388;28;20650;-79
2024/01/04 09:10:25;;;;;;;9.00;1.90;;;;;;;;;;5025659;28;20206;-78
2024/01/04 09:12:51;;;;;;;4.80;1.63;;;;;;;;;;5027896;28;20210;-78
2024/01/04 09:15:18;;;;;;;5.33;1.50;;;;;;;;;;5022451;28;20248;-79
2024/01/04 09:17:44;;;;;;;6.60;2.10;;;;;;;;;;5026165;28;20182;-79
2024/01/04 09:20:13;;;;;;;7.63;1.97;;;;;;;;;;5027411;28;20213;-78
2024/01/04 09:22:39;;;;;;;8.97;2.00;;;;;;;;;;5025028;28;20747;-79
2024/01/04 09:25:07;;;;;;;5.93;1.67;;;;;;;;;;5021717;28;20182;-78
2024/01/04 09:27:33;;;;;;;8.93;2.00;;;;;;;;;;5026578;28;20210;-80
2024/01/04 09:29:59;;;;;;;6.47;1.80;;;;;;;;;;5025869;28;20325;-79
2024/01/04 09:32:25;;;;;;;5.77;1.60;;;;;;;;;;5025343;28;20202;-79
2024/01/04 09:34:51;;;;;;;6.77;2.20;;;;;;;;;;5019745;28;20253;-78
2024/01/04 09:37:17;;;;;;;7.63;2.00;;;;;;;;;;5024520;28;20565;-79
2024/01/04 09:39:43;;;;;;;9.27;2.30;;;;;;;;;;5025399;28;20554;-78
2024/01/04 09:42:10;;;;;;;9.10;2.47;;;;;;;;;;5023534;28;20571;-78
2024/01/04 09:44:36;;;;;;;7.87;2.30;;;;;;;;;;5016836;28;20277;-78
2024/01/04 09:47:10;;;;;;;8.87;2.27;;;;;;;;;;5001294;28;20238;-78
2024/01/04 09:49:40;;;;;;;8.80;2.20;;;;;;;;;;5020332;28;20213;-78
2024/01/04 09:52:06;;;;;;;10.80;2.43;;;;;;;;;;5017373;28;20286;-78
2024/01/04 09:54:32;;;;;;;8.37;2.17;;;;;;;;;;5025238;28;20197;-78
2024/01/04 09:57:00;;;;;;;11.27;2.67;;;;;;;;;;5022228;28;20189;-79
2024/01/04 09:59:26;;;;;;;7.17;2.20;;;;;;;;;;5025558;28;20213;-79
2024/01/04 10:01:53;;;;;;;10.00;2.47;;;;;;;;;;5031964;28;20206;-78
2024/01/04 10:04:20;;;;;;;9.87;1.93;;;;;;;;;;5029417;28;20261;-77
2024/01/04 10:06:46;;;;;;;6.97;2.33;;;;;;;;;;5030845;28;20182;-82
2024/01/04 10:09:19;;;;;;;8.67;2.37;;;;;;;;;;5027639;28;20245;-79
2024/01/04 10:11:56;;;;;;;7.23;2.17;;;;;;;;;;5027701;28;20706;-79
2024/01/04 10:14:26;;;;;;;8.23;2.20;;;;;;;;;;5028156;28;20313;-79
2024/01/04 10:16:52;;;;;;;7.77;2.13;;;;;;;;;;5026905;28;20635;-78
2024/01/04 10:19:19;;;;;;;6.33;2.50;;;;;;;;;;5024676;28;20183;-79
2024/01/04 10:21:45;;;;;;;8.53;2.70;;;;;;;;;;5016901;28;20524;-78
2024/01/04 10:24:14;;;;;;;8.17;2.67;;;;;;;;;;5024472;28;20203;-78
2024/01/04 10:26:44;;;;;;;7.83;2.37;;;;;;;;;;5027853;28;20525;-78
2024/01/04 10:29:10;;;;;;;7.63;1.80;;;;;;;;;;5023736;28;20217;-78
2024/01/04 10:31:36;;;;;;;8.93;2.00;;;;;;;;;;5028674;28;20189;-78
2024/01/04 10:34:03;;;;;;;6.10;2.00;;;;;;;;;;5029390;28;20221;-78
2024/01/04 10:36:29;;;;;;;7.73;1.83;;;;;;;;;;5028625;28;20178;-78
2024/01/04 10:38:58;;;;;;;8.30;2.13;;;;;;;;;;5021906;28;20325;-78
2024/01/04 10:41:27;;;;;;;10.53;2.13;;;;;;;;;;5028665;28;20204;-78
2024/01/04 10:44:03;;;;;;;9.73;1.80;;;;;;;;;;5028786;28;20182;-78
2024/01/04 10:46:29;;;;;;;9.43;2.17;;;;;;;;;;5028393;28;20300;-78
2024/01/04 10:48:55;;;;;;;9.87;2.33;;;;;;;;;;5023164;28;20202;-80
2024/01/04 10:51:22;;;;;;;8.97;1.90;;;;;;;;;;5018879;28;20307;-78
2024/01/04 10:53:49;;;;;;;15.50;2.60;;;;;;;;;;5024965;28;20195;-78
2024/01/04 10:56:16;;;;;;;13.00;2.83;;;;;;;;;;5028309;28;20186;-78
2024/01/04 10:58:43;;;;;;;10.50;2.03;;;;;;;;;;5026902;28;20186;-78
2024/01/04 11:01:09;;;;;;;5.40;1.80;;;;;;;;;;5023129;28;20582;-80
2024/01/04 11:03:36;;;;;;;7.37;2.03;;;;;;;;;;5012655;28;20222;-77
2024/01/04 11:06:05;;;;;;;11.43;2.13;;;;;;;;;;5026348;28;20732;-76
2024/01/04 11:08:33;;;;;;;6.63;1.70;;;;;;;;;;5028116;28;20199;-77
2024/01/04 11:11:01;;;;;;;6.30;2.00;;;;;;;;;;5024340;28;20199;-81
2024/01/04 11:13:28;;;;;;;6.27;1.80;;;;;;;;;;5031004;28;20241;-82
2024/01/04 11:15:56;;;;;;;7.30;1.80;;;;;;;;;;5011517;28;20190;-79
2024/01/04 11:18:48;;;;;;;5.70;1.70;;;;;;;;;;5026013;28;20214;-79
2024/01/04 11:21:15;;;;;;;10.83;2.20;;;;;;;;;;5020799;28;20233;-79
2024/01/04 11:23:56;;;;;;;9.13;2.03;;;;;;;;;;5012251;28;20685;-79
2024/01/04 11:26:22;;;;;;;9.80;2.00;;;;;;;;;;5009812;28;20191;-83
2024/01/04 11:28:49;;;;;;;7.53;2.00;;;;;;;;;;5024751;28;20207;-77
2024/01/04 11:31:15;;;;;;;11.07;2.40;;;;;;;;;;5024412;28;20569;-77
2024/01/04 11:33:42;;;;;;;5.80;1.80;;;;;;;;;;5029610;28;20702;-77
2024/01/04 11:36:08;;;;;;;8.27;1.90;;;;;;;;;;5023933;28;20174;-77
2024/01/04 11:38:35;;;;;;;9.20;1.90;;;;;;;;;;5027061;28;20187;-78
2024/01/04 11:41:01;;;;;;;8.20;2.10;;;;;;;;;;5017081;28;20195;-77
2024/01/04 11:43:37;;;;;;;9.10;2.20;;;;;;;;;;5024874;28;20232;-80
2024/01/04 11:46:05;;;;;;;13.07;3.27;;;;;;;;;;5026065;28;20191;-75
2024/01/04 11:48:31;;;;;;;7.47;1.87;;;;;;;;;;5026630;28;20214;-75
2024/01/04 11:51:02;;;;;;;6.90;1.80;;;;;;;;;;5025801;28;20232;-76
2024/01/04 11:53:28;;;;;;;5.87;1.80;;;;;;;;;;5026999;28;20215;-75
2024/01/04 11:56:04;;;;;;;7.20;1.80;;;;;;;;;;5030326;28;20178;-75
2024/01/04 11:58:31;;;;;;;9.43;1.97;;;;;;;;;;5029082;28;20202;-75
2024/01/04 12:00:58;;;;;;;6.53;1.90;;;;;;;;;;5031941;28;20206;-76
2024/01/04 12:03:28;;;;;;;8.17;1.60;;;;;;;;;;4996513;28;20239;-74
2024/01/04 12:05:54;;;;;;;10.87;2.07;;;;;;;;;;5028092;28;20187;-72
2024/01/04 12:08:24;;;;;;;5.10;1.57;;;;;;;;;;5030092;28;20553;-72
2024/01/04 12:10:52;;;;;;;7.23;1.40;;;;;;;;;;5029669;28;20185;-75
2024/01/04 12:13:19;;;;;;;5.67;1.80;;;;;;;;;;5032963;28;20198;-75
2024/01/04 12:15:45;;;;;;;9.07;1.87;;;;;;;;;;5027928;28;20229;-75
2024/01/04 12:18:12;;;;;;;7.30;2.00;;;;;;;;;;5026875;28;20235;-75
2024/01/04 12:20:38;;;;;;;5.50;1.50;;;;;;;;;;5029852;28;20186;-75
2024/01/04 12:23:06;;;;;;;7.17;1.70;;;;;;;;;;5030135;28;20785;-75
2024/01/04 12:25:34;;;;;;;4.97;1.53;;;;;;;;;;5016012;28;20244;-77
2024/01/04 12:28:01;;;;;;;5.63;1.40;;;;;;;;;;5022986;28;20671;-75
2024/01/04 12:30:28;;;;;;;4.53;1.60;;;;;;;;;;5029885;28;20234;-75
2024/01/04 12:32:56;;;;;;;6.50;1.47;;;;;;;;;;5026228;28;20194;-75
2024/01/04 12:35:22;;;;;;;5.87;1.40;;;;;;;;;;5027258;28;20190;-75
2024/01/04 12:38:01;;;;;;;3.77;1.20;;;;;;;;;;5031013;28;20209;-75
2024/01/04 12:40:28;;;;;;;5.53;1.50;;;;;;;;;;5028432;28;20190;-75
2024/01/04 12:42:55;;;;;;;6.27;1.60;;;;;;;;;;5030455;28;20244;-75
2024/01/04 12:45:22;;;;;;;3.97;1.50;;;;;;;;;;5031420;28;20191;-76
2024/01/04 12:47:48;;;;;;;5.13;1.53;;;;;;;;;;5030529;28;20261;-75
2024/01/04 12:50:21;;;;;;;8.03;1.80;;;;;;;;;;5029976;28;20514;-75
2024/01/04 12:52:47;;;;;;;7.10;1.60;;;;;;;;;;5031163;28;20608;-75
2024/01/04 12:55:13;;;;;;;5.60;1.80;;;;;;;;;;5029944;28;20179;-75
2024/01/04 12:57:39;;;;;;;7.47;1.83;;;;;;;;;;5030450;28;20186;-76
2024/01/04 13:00:06;;;;;;;6.83;1.77;;;;;;;;;;5031016;28;20191;-75
2024/01/04 13:02:32;;;;;;;8.87;2.20;;;;;;;;;;5029854;28;20212;-78
2024/01/04 13:04:58;;;;;;;6.00;1.90;;;;;;;;;;5030157;28;20185;-75
2024/01/04 13:07:24;;;;;;;9.87;2.10;;;;;;;;;;5027151;28;20183;-76
2024/01/04 13:09:50;;;;;;;6.33;1.93;;;;;;;;;;5030152;28;20214;-75
2024/01/04 13:12:16;;;;;;;8.83;2.10;;;;;;;;;;5028814;28;20605;-75
2024/01/04 13:14:43;;;;;;;6.80;1.50;;;;;;;;;;5025481;28;20222;-74
2024/01/04 13:17:09;;;;;;;6.70;1.70;;;;;;;;;;5022204;28;20285;-74
2024/01/04 13:19:35;;;;;;;6.53;1.60;;;;;;;;;;5027779;28;20190;-75
2024/01/04 13:22:01;;;;;;;9.13;1.73;;;;;;;;;;5028763;28;20293;-74
2024/01/04 13:24:29;;;;;;;9.70;2.23;;;;;;;;;;5009764;28;20669;-74
2024/01/04 13:26:55;;;;;;;7.90;2.17;;;;;;;;;;5019912;28;20191;-75
2024/01/04 13:29:22;;;;;;;8.07;2.33;;;;;;;;;;5035743;28;20210;-75
2024/01/04 13:31:48;;;;;;;7.33;1.70;;;;;;;;;;5028650;28;20702;-75
2024/01/04 13:34:14;;;;;;;10.10;2.00;;;;;;;;;;5024496;28;20634;-75
2024/01/04 13:36:40;;;;;;;8.63;1.87;;;;;;;;;;5026594;28;20183;-75
2024/01/04 13:39:10;;;;;;;9.50;2.10;;;;;;;;;;5028637;28;20193;-75
2024/01/04 13:41:37;;;;;;;6.37;1.90;;;;;;;;;;5026690;28;20209;-75
2024/01/04 13:44:03;;;;;;;10.73;2.17;;;;;;;;;;5028138;28;20194;-75
2024/01/04 13:46:31;;;;;;;7.93;2.07;;;;;;;;;;5010239;28;20275;-75
2024/01/04 13:48:57;;;;;;;8.97;2.20;;;;;;;;;;5026992;28;20217;-75
2024/01/04 13:51:23;;;;;;;8.63;2.20;;;;;;;;;;5011116;28;20194;-76
2024/01/04 13:53:50;;;;;;;8.23;2.03;;;;;;;;;;5025731;28;20203;-75
2024/01/04 13:56:16;;;;;;;9.40;2.10;;;;;;;;;;5026381;28;20703;-78
2024/01/04 13:58:42;;;;;;;8.13;2.13;;;;;;;;;;5028530;28;20182;-76
2024/01/04 14:01:08;;;;;;;5.83;1.87;;;;;;;;;;5010577;28;20685;-76
2024/01/04 14:03:35;;;;;;;7.20;2.00;;;;;;;;;;5026184;28;20785;-75
2024/01/04 14:06:01;;;;;;;5.63;1.80;;;;;;;;;;5025387;28;20207;-75
2024/01/04 14:08:27;;;;;;;8.47;1.73;;;;;;;;;;5009716;28;20901;-75
2024/01/04 14:10:53;;;;;;;9.03;2.20;;;;;;;;;;5025334;28;20182;-75
2024/01/04 14:13:20;;;;;;;5.50;1.73;;;;;;;;;;5027111;28;20194;-75
2024/01/04 14:15:46;;;;;;;9.00;1.87;;;;;;;;;;5028301;28;20716;-73
2024/01/04 14:18:12;;;;;;;5.33;1.97;;;;;;;;;;5026789;28;20625;-76
2024/01/04 14:20:40;;;;;;;6.67;1.93;;;;;;;;;;5025450;28;20218;-74
2024/01/04 14:23:07;;;;;;;4.93;1.40;;;;;;;;;;5027142;28;20209;-75
2024/01/04 14:25:34;;;;;;;6.57;1.67;;;;;;;;;;5027250;28;20224;-75
2024/01/04 14:28:00;;;;;;;5.30;1.40;;;;;;;;;;5027095;28;20183;-76
2024/01/04 14:30:27;;;;;;;7.47;1.60;;;;;;;;;;5025891;28;20210;-76
2024/01/04 14:32:53;;;;;;;6.00;1.83;;;;;;;;;;5023837;28;20214;-75
2024/01/04 14:35:19;;;;;;;5.13;1.40;;;;;;;;;;5024176;28;20329;-74
2024/01/04 14:37:46;;;;;;;5.33;1.60;;;;;;;;;;5027948;28;20525;-74
2024/01/04 14:40:18;;;;;;;7.10;1.77;;;;;;;;;;5026867;28;20183;-74